Terminal Aerodrome Forecast
Issued by NWS

Current Version | Previous Version | Text Only | Print | Product List | Glossary On
Versions: 1 2 3 4 5 6 7 8 9 10 11 12 13 14
000
FTUS42 KMLB 290525
TAFISM
TAF
KISM 290525Z 2906/3006 05003KT P6SM FEW035
     FM291500 07011KT P6SM SCT035
     FM291800 07013KT P6SM SCT045
     FM300100 06007KT P6SM FEW045
      AMD NOT SKED TIL 291200=

USA.gov is the U.S. government's official web portal to all federal, state and local government web resources and services.